Time;durP1;ratioP1;P1;durP2;ratioP2;P2;SDS_P1;SDS_P2;PMS_P1;PMS_P2;Temp;Humidity;BMP_temperature;BMP_pressure;BME280_temperature;BME280_humidity;BME280_pressure;Samples;Min_cycle;Max_cycle;Signal;HPM_P1;HPM_P2
2023/09/07 00:00:30;;;;;;;8.03;6.90;;;;;;;14.77;82.94;101779.31;4968278;28;20429;-71
2023/09/07 00:02:56;;;;;;;8.17;6.50;;;;;;;14.75;83.16;101773.56;4988326;28;20288;-72
2023/09/07 00:05:23;;;;;;;8.30;7.03;;;;;;;14.73;83.38;101773.09;4988559;28;20785;-72
2023/09/07 00:07:49;;;;;;;8.97;7.23;;;;;;;14.71;83.46;101770.00;4986647;28;20215;-72
2023/09/07 00:10:17;;;;;;;10.87;7.63;;;;;;;14.67;83.09;101772.53;4985354;28;20419;-72
2023/09/07 00:12:44;;;;;;;9.67;7.77;;;;;;;14.64;83.10;101770.50;4984758;28;20341;-72
2023/09/07 00:15:11;;;;;;;9.80;7.80;;;;;;;14.63;82.84;101776.13;4984461;28;20306;-72
2023/09/07 00:17:37;;;;;;;9.67;7.17;;;;;;;14.59;83.03;101762.72;4979318;28;20268;-72
2023/09/07 00:20:09;;;;;;;11.73;7.80;;;;;;;14.56;82.83;101759.94;4986456;28;20203;-71
2023/09/07 00:22:35;;;;;;;9.53;7.40;;;;;;;14.54;83.39;101772.78;4987049;28;20217;-71
2023/09/07 00:25:03;;;;;;;8.97;7.40;;;;;;;14.52;83.30;101767.78;4987320;28;21423;-72
2023/09/07 00:27:31;;;;;;;8.63;7.13;;;;;;;14.50;84.08;101766.53;4983193;28;21444;-72
2023/09/07 00:29:57;;;;;;;9.93;7.63;;;;;;;14.48;84.16;101764.19;4982314;28;20241;-72
2023/09/07 00:32:24;;;;;;;9.27;7.47;;;;;;;14.47;84.20;101775.16;4966192;28;20285;-72
2023/09/07 00:34:50;;;;;;;10.13;8.20;;;;;;;14.45;84.10;101772.84;4966205;28;20550;-71
2023/09/07 00:37:16;;;;;;;8.67;7.77;;;;;;;14.43;84.71;101774.25;4986056;28;20887;-72
2023/09/07 00:39:43;;;;;;;10.03;7.97;;;;;;;14.41;84.47;101771.13;4966665;28;20203;-72
2023/09/07 00:42:09;;;;;;;11.83;8.00;;;;;;;14.39;84.66;101778.66;4968023;28;21252;-71
2023/09/07 00:44:37;;;;;;;8.97;7.90;;;;;;;14.36;84.67;101780.06;4982571;28;20259;-72
2023/09/07 00:47:05;;;;;;;8.83;7.10;;;;;;;14.33;84.75;101778.03;4982106;28;21243;-72
2023/09/07 00:49:31;;;;;;;9.43;7.63;;;;;;;14.30;84.29;101773.38;4983660;28;20482;-72
2023/09/07 00:51:59;;;;;;;9.93;7.97;;;;;;;14.29;85.13;101779.00;4965557;28;20330;-71
2023/09/07 00:54:25;;;;;;;9.30;7.00;;;;;;;14.27;85.06;101775.88;4967272;28;20228;-72
2023/09/07 00:56:51;;;;;;;10.20;7.77;;;;;;;14.24;85.03;101771.22;4964701;28;20214;-71
2023/09/07 00:59:18;;;;;;;8.57;7.30;;;;;;;14.21;84.45;101775.31;4965559;28;20713;-71
2023/09/07 01:01:46;;;;;;;8.23;7.10;;;;;;;14.21;85.06;101782.47;4960738;28;20210;-71
2023/09/07 01:04:12;;;;;;;8.73;7.40;;;;;;;14.19;85.32;101766.06;4969787;28;20222;-72
2023/09/07 01:06:43;;;;;;;10.27;7.43;;;;;;;14.16;85.28;101774.66;4972291;28;20772;-71
2023/09/07 01:09:15;;;;;;;9.37;7.33;;;;;;;14.15;85.21;101771.25;4976862;28;20731;-72
2023/09/07 01:11:41;;;;;;;12.43;8.33;;;;;;;14.10;85.12;101768.75;4969791;28;20585;-71
2023/09/07 01:14:08;;;;;;;10.53;7.70;;;;;;;14.09;85.06;101767.22;4990853;28;20235;-72
2023/09/07 01:16:35;;;;;;;8.40;7.50;;;;;;;14.08;85.15;101772.84;4991008;28;20217;-71
2023/09/07 01:19:06;;;;;;;12.50;7.50;;;;;;;14.06;85.31;101770.50;4969989;28;21793;-72
2023/09/07 01:21:36;;;;;;;10.60;7.93;;;;;;;14.05;85.76;101765.50;4972169;28;20210;-71
2023/09/07 01:24:05;;;;;;;11.77;8.87;;;;;;;14.03;85.98;101767.69;4990157;28;20854;-72
2023/09/07 01:26:31;;;;;;;10.13;7.97;;;;;;;14.00;86.01;101763.00;4971779;28;24420;-71
2023/09/07 01:28:57;;;;;;;11.23;8.13;;;;;;;13.99;86.10;101777.41;4970833;28;20218;-72
2023/09/07 01:31:24;;;;;;;10.43;8.67;;;;;;;13.98;86.56;101773.94;4989900;28;20210;-71
2023/09/07 01:33:50;;;;;;;10.83;8.47;;;;;;;13.95;86.17;101763.97;4968927;28;21250;-71
2023/09/07 01:36:16;;;;;;;10.57;8.13;;;;;;;13.93;86.11;101768.81;4991255;28;20262;-71
2023/09/07 01:38:44;;;;;;;11.53;8.60;;;;;;;13.92;86.87;101767.25;4969494;28;20225;-71
2023/09/07 01:41:10;;;;;;;11.97;8.63;;;;;;;13.90;86.38;101764.16;4969075;28;20214;-72
2023/09/07 01:43:36;;;;;;;12.27;8.87;;;;;;;13.88;86.69;101763.69;4988040;28;20251;-72
2023/09/07 01:46:03;;;;;;;14.70;8.53;;;;;;;13.86;86.79;101765.88;4987506;28;21267;-71
2023/09/07 01:48:29;;;;;;;11.57;8.73;;;;;;;13.84;86.83;101768.09;4993627;28;20207;-71
2023/09/07 01:50:55;;;;;;;11.30;7.60;;;;;;;13.81;86.91;101766.06;4986800;28;20229;-72
2023/09/07 01:53:22;;;;;;;13.40;8.60;;;;;;;13.80;87.10;101767.16;4972533;28;20207;-72
2023/09/07 01:55:51;;;;;;;11.03;8.43;;;;;;;13.77;86.72;101769.69;4968776;28;20198;-72
2023/09/07 01:58:17;;;;;;;11.80;8.70;;;;;;;13.76;87.48;101765.47;4971835;28;20796;-72
2023/09/07 02:00:43;;;;;;;10.87;8.97;;;;;;;13.73;87.21;101769.53;4968480;28;20211;-71
2023/09/07 02:03:10;;;;;;;11.20;8.67;;;;;;;13.72;87.56;101767.97;4973867;28;20521;-71
2023/09/07 02:05:36;;;;;;;11.43;8.33;;;;;;;13.71;87.62;101763.75;4971065;28;20231;-72
2023/09/07 02:08:03;;;;;;;11.67;8.53;;;;;;;13.70;87.58;101772.03;4970899;28;20268;-71
2023/09/07 02:10:30;;;;;;;11.67;8.60;;;;;;;13.67;87.47;101762.06;4970168;28;21235;-72
2023/09/07 02:12:58;;;;;;;10.30;8.70;;;;;;;13.66;87.49;101771.13;4984131;28;20827;-72
2023/09/07 02:15:25;;;;;;;12.50;9.90;;;;;;;13.64;87.80;101773.28;4989902;28;20341;-70
2023/09/07 02:17:52;;;;;;;8.87;7.77;;;;;;;13.63;87.75;101771.75;4968489;28;21339;-71
2023/09/07 02:20:21;;;;;;;12.57;8.60;;;;;;;13.60;87.74;101770.50;4987290;28;20206;-71
2023/09/07 02:22:47;;;;;;;10.10;8.03;;;;;;;13.58;87.99;101771.91;4985513;28;21009;-72
2023/09/07 02:25:14;;;;;;;9.57;8.30;;;;;;;13.57;88.07;101775.66;4983145;28;20320;-71
2023/09/07 02:27:41;;;;;;;11.77;8.60;;;;;;;13.55;88.08;101767.25;4990123;28;20808;-71
2023/09/07 02:30:09;;;;;;;12.40;9.57;;;;;;;13.52;87.70;101771.31;4969443;28;20201;-72
2023/09/07 02:32:36;;;;;;;10.93;8.90;;;;;;;13.51;87.76;101777.69;4987303;28;20209;-72
2023/09/07 02:35:03;;;;;;;10.60;9.00;;;;;;;13.50;87.51;101772.72;4967817;28;20243;-71
2023/09/07 02:37:30;;;;;;;10.80;9.20;;;;;;;13.48;87.78;101774.91;4991245;28;20569;-71
2023/09/07 02:39:56;;;;;;;10.77;9.27;;;;;;;13.45;87.61;101767.59;4969510;28;20206;-72
2023/09/07 02:42:24;;;;;;;13.17;8.87;;;;;;;13.44;87.90;101773.97;4989403;28;20470;-72
2023/09/07 02:44:51;;;;;;;11.13;8.53;;;;;;;13.41;87.90;101775.38;4965728;28;20840;-72
2023/09/07 02:47:18;;;;;;;10.17;8.77;;;;;;;13.41;88.04;101771.97;4989213;28;20698;-72
2023/09/07 02:49:45;;;;;;;11.33;8.83;;;;;;;13.38;87.93;101781.31;4969018;28;20222;-71
2023/09/07 02:52:11;;;;;;;13.03;9.60;;;;;;;13.36;87.71;101777.41;4971114;28;20205;-71
2023/09/07 02:54:37;;;;;;;11.87;8.87;;;;;;;13.35;88.02;101773.97;4973725;28;20261;-72
2023/09/07 02:57:04;;;;;;;10.87;8.73;;;;;;;13.32;88.08;101779.94;4985293;28;20268;-71
2023/09/07 02:59:30;;;;;;;11.43;8.73;;;;;;;13.31;88.06;101781.00;4966671;28;20579;-72
2023/09/07 03:01:57;;;;;;;12.57;9.23;;;;;;;13.31;88.33;101774.94;4968553;28;20793;-71
2023/09/07 03:04:24;;;;;;;11.67;9.20;;;;;;;13.30;88.80;101779.44;4987180;28;21271;-71
2023/09/07 03:06:51;;;;;;;13.63;9.40;;;;;;;13.29;88.42;101777.09;4964926;28;20494;-72
2023/09/07 03:09:17;;;;;;;11.73;9.27;;;;;;;13.26;88.02;101775.09;4966535;28;20221;-72
2023/09/07 03:11:44;;;;;;;16.60;10.23;;;;;;;13.26;88.39;101778.50;4972036;28;20218;-71
2023/09/07 03:14:10;;;;;;;12.90;9.10;;;;;;;13.26;88.73;101770.53;4967590;28;24878;-72
2023/09/07 03:16:38;;;;;;;11.37;8.80;;;;;;;13.26;89.01;101773.19;4988676;28;20214;-72
2023/09/07 03:19:04;;;;;;;12.10;9.80;;;;;;;13.25;88.84;101776.19;4968272;28;20344;-72
2023/09/07 03:21:33;;;;;;;16.30;10.37;;;;;;;13.26;89.64;101783.81;4990141;28;21570;-72
2023/09/07 03:23:59;;;;;;;12.87;10.50;;;;;;;13.23;88.96;101783.66;4968422;28;20229;-71
2023/09/07 03:26:26;;;;;;;17.33;12.60;;;;;;;13.22;88.32;101779.47;4970466;28;20227;-72
2023/09/07 03:28:53;;;;;;;20.30;12.80;;;;;;;13.23;88.70;101784.47;4967793;28;20989;-71
2023/09/07 03:31:20;;;;;;;17.67;11.80;;;;;;;13.24;89.00;101780.72;4968705;28;21011;-71
2023/09/07 03:33:46;;;;;;;16.30;12.57;;;;;;;13.25;88.46;101790.22;4986856;28;20235;-72
2023/09/07 03:36:14;;;;;;;19.37;14.00;;;;;;;13.24;86.57;101783.34;4969956;28;20217;-72
2023/09/07 03:38:44;;;;;;;20.27;13.83;;;;;;;13.27;87.55;101789.91;4971641;28;20209;-72
2023/09/07 03:41:10;;;;;;;16.73;12.33;;;;;;;13.29;87.68;101790.38;4985861;28;20207;-70
2023/09/07 03:43:36;;;;;;;16.83;12.00;;;;;;;13.33;88.09;101791.31;4989368;28;20217;-71
2023/09/07 03:46:03;;;;;;;19.93;13.67;;;;;;;13.32;87.00;101792.41;4967889;28;20234;-72
2023/09/07 03:48:29;;;;;;;20.37;14.63;;;;;;;13.32;86.90;101795.84;4989706;28;20446;-71
2023/09/07 03:50:55;;;;;;;21.40;14.20;;;;;;;13.32;85.98;101795.84;4967174;28;20607;-72
2023/09/07 03:53:22;;;;;;;18.23;13.27;;;;;;;13.34;86.49;101798.94;4969870;28;20274;-72
2023/09/07 03:55:49;;;;;;;18.87;13.90;;;;;;;13.36;86.96;101791.44;4967305;28;20210;-71
2023/09/07 03:58:17;;;;;;;18.33;14.13;;;;;;;13.41;88.34;101791.28;4990967;28;20321;-72
2023/09/07 04:00:45;;;;;;;18.47;13.90;;;;;;;13.40;88.42;101797.69;4971697;28;20915;-72
2023/09/07 04:03:12;;;;;;;17.93;14.50;;;;;;;13.41;88.44;101807.22;4966300;28;20216;-72
2023/09/07 04:05:38;;;;;;;18.93;14.50;;;;;;;13.42;88.37;101797.38;4973117;28;20671;-71
2023/09/07 04:08:05;;;;;;;18.70;14.13;;;;;;;13.42;88.35;101800.03;4984864;28;20320;-72
2023/09/07 04:10:31;;;;;;;22.70;14.10;;;;;;;13.41;87.30;101801.91;4966319;28;20219;-71
2023/09/07 04:12:59;;;;;;;19.83;13.73;;;;;;;13.43;88.38;101806.91;4966872;28;20233;-72
2023/09/07 04:15:26;;;;;;;16.77;13.27;;;;;;;13.45;89.30;101805.50;4969653;28;20241;-72
2023/09/07 04:17:54;;;;;;;17.40;13.57;;;;;;;13.43;88.90;101807.69;4965456;28;20267;-72
2023/09/07 04:20:21;;;;;;;15.00;11.97;;;;;;;13.43;89.00;101798.94;4986011;28;20230;-72
2023/09/07 04:22:47;;;;;;;16.67;13.60;;;;;;;13.40;88.26;101796.94;4968224;28;20814;-71
2023/09/07 04:25:14;;;;;;;16.13;12.40;;;;;;;13.38;87.81;101793.78;4961918;28;20238;-72
2023/09/07 04:27:40;;;;;;;18.90;13.53;;;;;;;13.38;88.40;101791.13;4966234;28;20708;-72
2023/09/07 04:30:10;;;;;;;18.53;13.23;;;;;;;13.35;87.94;101797.84;4960555;28;20213;-72
2023/09/07 04:32:37;;;;;;;14.97;12.00;;;;;;;13.35;88.31;101797.09;4967392;28;20221;-72
2023/09/07 04:35:04;;;;;;;17.70;13.50;;;;;;;13.36;88.42;101791.44;4965525;28;21383;-72
2023/09/07 04:37:31;;;;;;;20.73;14.40;;;;;;;13.35;87.55;101789.91;4988062;28;20697;-72
2023/09/07 04:39:57;;;;;;;20.37;14.17;;;;;;;13.37;88.10;101797.53;4968963;28;20206;-71
2023/09/07 04:42:25;;;;;;;22.57;14.43;;;;;;;13.38;87.50;101791.13;4970158;28;20211;-71
2023/09/07 04:44:51;;;;;;;20.63;14.73;;;;;;;13.41;87.92;101791.28;4986524;28;20970;-71
2023/09/07 04:47:19;;;;;;;19.87;13.63;;;;;;;13.45;88.65;101799.44;4966710;28;20803;-72
2023/09/07 04:49:50;;;;;;;18.30;13.77;;;;;;;13.47;89.14;101797.22;4967981;28;20223;-71
2023/09/07 04:52:17;;;;;;;19.70;13.03;;;;;;;13.49;89.17;101798.47;4975862;28;20800;-71
2023/09/07 04:54:44;;;;;;;22.07;13.87;;;;;;;13.49;89.20;101802.97;4963568;28;20311;-72
2023/09/07 04:57:10;;;;;;;19.10;14.60;;;;;;;13.51;89.33;101800.81;4977244;28;20198;-71
2023/09/07 04:59:37;;;;;;;18.77;15.07;;;;;;;13.52;89.61;101805.81;4961470;28;20764;-71
2023/09/07 05:02:03;;;;;;;26.57;14.63;;;;;;;13.52;89.16;101799.72;4952981;28;20211;-72
2023/09/07 05:04:31;;;;;;;22.30;16.67;;;;;;;13.51;87.49;101796.28;4956046;28;20230;-71
2023/09/07 05:06:59;;;;;;;24.90;18.13;;;;;;;13.54;88.54;101800.97;4967129;28;20219;-72
2023/09/07 05:09:29;;;;;;;23.13;16.83;;;;;;;13.58;88.77;101801.91;4967318;28;20296;-71
2023/09/07 05:11:55;;;;;;;25.90;17.97;;;;;;;13.62;87.75;101812.66;4967671;28;20483;-72
2023/09/07 05:14:22;;;;;;;24.00;17.87;;;;;;;13.68;87.51;101803.44;4966652;28;20244;-71
2023/09/07 05:16:49;;;;;;;24.93;18.53;;;;;;;13.74;87.37;101815.44;4970573;28;20222;-71
2023/09/07 05:19:15;;;;;;;23.80;17.43;;;;;;;13.79;88.06;101808.09;4969317;28;20221;-71
2023/09/07 05:21:43;;;;;;;26.73;18.70;;;;;;;13.84;87.54;101818.53;4970215;28;20218;-72
2023/09/07 05:24:10;;;;;;;24.40;17.63;;;;;;;13.87;86.61;101817.88;4988032;28;20233;-71
2023/09/07 05:26:36;;;;;;;27.10;18.70;;;;;;;13.95;85.18;101824.28;4971562;28;20283;-72
2023/09/07 05:29:02;;;;;;;23.20;17.63;;;;;;;14.02;85.38;101833.31;4969220;28;20213;-71
2023/09/07 05:31:29;;;;;;;24.03;17.77;;;;;;;14.07;85.67;101835.78;4969247;28;20239;-71
2023/09/07 05:33:55;;;;;;;23.77;18.43;;;;;;;14.13;83.94;101834.50;4970121;28;20245;-71
2023/09/07 05:36:21;;;;;;;25.37;17.30;;;;;;;14.18;83.40;101829.03;4957661;28;20698;-72
2023/09/07 05:38:49;;;;;;;24.87;17.30;;;;;;;14.27;84.14;101834.34;4988027;28;20215;-71
2023/09/07 05:41:16;;;;;;;23.73;17.83;;;;;;;14.34;83.06;101846.03;4967985;28;20698;-72
2023/09/07 05:43:42;;;;;;;21.20;16.87;;;;;;;14.42;84.37;101837.25;4970713;28;20902;-71
2023/09/07 05:46:08;;;;;;;20.67;16.37;;;;;;;14.48;82.73;101848.47;4989121;28;20226;-71
2023/09/07 05:48:35;;;;;;;22.83;16.90;;;;;;;14.56;84.01;101847.66;4975323;28;20910;-71
2023/09/07 05:51:01;;;;;;;17.77;15.17;;;;;;;14.62;82.92;101849.81;4974121;28;20456;-71
2023/09/07 05:53:28;;;;;;;21.17;15.40;;;;;;;14.72;84.07;101851.31;4974222;28;20750;-72
2023/09/07 05:55:56;;;;;;;22.43;14.83;;;;;;;14.78;82.91;101850.00;4976751;28;20967;-72
2023/09/07 05:58:22;;;;;;;17.40;13.90;;;;;;;14.89;83.42;101848.53;4974916;28;20204;-71
2023/09/07 06:00:49;;;;;;;19.07;15.13;;;;;;;14.94;83.06;101846.47;4975695;28;21335;-72
2023/09/07 06:03:15;;;;;;;16.03;13.73;;;;;;;15.03;82.74;101844.53;4970820;28;20304;-71
2023/09/07 06:05:42;;;;;;;17.23;13.57;;;;;;;15.13;81.94;101843.38;4974258;28;21705;-71
2023/09/07 06:08:10;;;;;;;14.83;12.73;;;;;;;15.24;81.60;101850.63;4975900;28;20225;-71
2023/09/07 06:10:38;;;;;;;17.53;12.33;;;;;;;15.31;82.41;101848.22;4975537;28;20216;-71
2023/09/07 06:13:06;;;;;;;16.10;13.30;;;;;;;15.39;81.92;101855.41;4978301;28;21012;-72
2023/09/07 06:15:33;;;;;;;14.70;11.40;;;;;;;15.49;81.89;101854.22;4974219;28;20357;-71
2023/09/07 06:17:59;;;;;;;21.37;12.53;;;;;;;15.60;81.55;101860.69;4975588;28;20909;-72
2023/09/07 06:20:26;;;;;;;15.23;11.90;;;;;;;15.70;81.70;101858.41;4991292;28;20727;-72
2023/09/07 06:22:52;;;;;;;15.63;11.23;;;;;;;15.77;80.49;101855.97;4991218;28;20205;-71
2023/09/07 06:25:20;;;;;;;13.30;10.47;;;;;;;15.91;80.42;101853.00;4975449;28;20552;-72
2023/09/07 06:27:46;;;;;;;14.93;10.80;;;;;;;16.01;79.93;101858.69;4977737;28;21463;-72
2023/09/07 06:30:14;;;;;;;13.50;10.70;;;;;;;16.14;80.03;101854.16;4972459;28;20218;-72
2023/09/07 06:32:42;;;;;;;14.73;10.27;;;;;;;16.24;79.16;101861.72;4972702;28;20222;-72
2023/09/07 06:35:10;;;;;;;12.70;10.07;;;;;;;16.33;79.56;101863.16;4972424;28;21448;-72
2023/09/07 06:37:40;;;;;;;13.60;9.43;;;;;;;16.44;79.27;101860.84;4994307;28;20353;-71
2023/09/07 06:40:08;;;;;;;16.63;10.40;;;;;;;16.54;78.57;101863.09;4975651;28;20218;-71
2023/09/07 06:42:34;;;;;;;12.90;9.50;;;;;;;16.65;78.19;101866.84;4974956;28;20752;-71
2023/09/07 06:45:07;;;;;;;15.30;9.90;;;;;;;16.74;77.90;101870.97;4974877;28;20243;-71
2023/09/07 06:47:35;;;;;;;11.57;9.23;;;;;;;16.86;77.50;101870.19;4975263;28;21231;-72
2023/09/07 06:50:02;;;;;;;13.50;9.67;;;;;;;16.93;77.64;101871.16;4974181;28;20211;-71
2023/09/07 06:52:29;;;;;;;12.30;9.53;;;;;;;17.02;77.22;101869.13;4976855;28;21744;-71
2023/09/07 06:54:55;;;;;;;12.27;9.23;;;;;;;17.12;77.23;101871.34;4976243;28;20231;-72
2023/09/07 06:57:23;;;;;;;11.17;9.23;;;;;;;17.24;76.98;101873.22;4971833;28;20876;-72
2023/09/07 06:59:50;;;;;;;12.50;9.37;;;;;;;17.36;76.30;101873.16;4974638;28;20526;-72
2023/09/07 07:02:17;;;;;;;11.30;8.57;;;;;;;17.48;76.27;101879.25;4971309;28;20662;-72
2023/09/07 07:04:46;;;;;;;11.20;7.83;;;;;;;17.59;76.11;101869.66;4988656;28;20609;-72
2023/09/07 07:07:14;;;;;;;11.40;8.40;;;;;;;17.70;75.55;101869.94;4972952;28;21579;-72
2023/09/07 07:09:40;;;;;;;8.83;7.63;;;;;;;17.81;75.06;101871.00;4974403;28;20298;-71
2023/09/07 07:12:07;;;;;;;12.17;7.43;;;;;;;17.92;74.46;101872.03;4975233;28;20337;-71
2023/09/07 07:14:33;;;;;;;9.37;7.33;;;;;;;18.00;74.87;101877.22;4973977;28;20543;-72
2023/09/07 07:17:01;;;;;;;19.53;8.43;;;;;;;18.08;74.39;101870.94;4970353;28;20324;-72
2023/09/07 07:19:28;;;;;;;11.67;8.07;;;;;;;18.20;73.35;101878.88;4993411;28;20516;-71
2023/09/07 07:21:55;;;;;;;10.53;7.23;;;;;;;18.33;72.90;101880.38;4974545;28;20215;-72
2023/09/07 07:24:22;;;;;;;9.67;7.10;;;;;;;18.44;71.92;101878.72;4973442;28;20802;-71
2023/09/07 07:26:49;;;;;;;11.07;7.63;;;;;;;18.58;72.47;101887.06;4991733;28;20852;-71
2023/09/07 07:29:15;;;;;;;10.87;7.30;;;;;;;18.68;72.67;101883.09;4973085;28;20203;-72
2023/09/07 07:31:41;;;;;;;9.60;7.00;;;;;;;18.78;72.77;101882.56;4983170;28;20807;-71
2023/09/07 07:34:08;;;;;;;10.67;7.60;;;;;;;18.89;71.86;101889.69;4973056;28;20347;-72
2023/09/07 07:36:34;;;;;;;10.73;7.77;;;;;;;19.04;71.85;101890.78;4994864;28;20223;-72
2023/09/07 07:39:06;;;;;;;11.50;7.47;;;;;;;19.15;70.60;101889.88;4973420;28;20214;-72
2023/09/07 07:41:33;;;;;;;8.97;7.20;;;;;;;19.28;70.60;101888.66;4973365;28;20207;-71
2023/09/07 07:44:00;;;;;;;9.13;6.93;;;;;;;19.39;70.34;101889.63;4973422;28;20238;-71
2023/09/07 07:46:26;;;;;;;11.13;7.23;;;;;;;19.50;70.23;101889.84;4972479;28;20211;-72
2023/09/07 07:48:52;;;;;;;10.47;7.47;;;;;;;19.61;70.02;101888.16;4973105;28;20215;-72
2023/09/07 07:51:19;;;;;;;9.53;6.90;;;;;;;19.74;69.07;101884.19;4972865;28;20203;-72
2023/09/07 07:53:49;;;;;;;9.03;7.17;;;;;;;19.87;68.53;101888.25;4975651;28;20234;-72
2023/09/07 07:56:17;;;;;;;9.13;6.87;;;;;;;20.01;67.98;101885.81;4974710;28;20209;-72
2023/09/07 07:58:45;;;;;;;9.20;6.30;;;;;;;20.14;67.62;101877.28;4974367;28;20204;-71
2023/09/07 08:01:16;;;;;;;8.17;6.40;;;;;;;20.27;66.77;101878.63;4971188;28;20230;-72
2023/09/07 08:03:43;;;;;;;9.70;6.83;;;;;;;20.40;66.21;101882.69;4974632;28;20368;-72
2023/09/07 08:06:10;;;;;;;9.83;7.20;;;;;;;20.52;65.91;101877.13;4974327;28;20207;-72
2023/09/07 08:08:37;;;;;;;8.90;6.23;;;;;;;20.61;66.61;101877.63;4974577;28;20224;-72
2023/09/07 08:11:05;;;;;;;8.43;6.70;;;;;;;20.75;65.43;101882.44;4973009;28;20782;-71
2023/09/07 08:13:34;;;;;;;7.77;6.40;;;;;;;20.84;65.13;101874.88;4972440;28;20472;-71
2023/09/07 08:16:01;;;;;;;8.90;6.30;;;;;;;20.95;63.74;101873.16;4971802;28;21364;-72
2023/09/07 08:18:27;;;;;;;10.00;6.80;;;;;;;21.07;65.18;101878.28;4972500;28;20717;-71
2023/09/07 08:20:54;;;;;;;8.90;5.90;;;;;;;21.15;63.87;101879.91;4990425;28;20212;-72
2023/09/07 08:23:22;;;;;;;7.50;5.87;;;;;;;21.30;63.26;101881.63;4971125;28;20682;-71
2023/09/07 08:25:48;;;;;;;7.30;5.80;;;;;;;21.41;64.09;101877.16;4968723;28;20328;-72
2023/09/07 08:28:18;;;;;;;7.87;6.27;;;;;;;21.53;63.02;101877.69;4971901;28;21345;-72
2023/09/07 08:30:45;;;;;;;10.30;6.83;;;;;;;21.64;62.48;101877.81;4991651;28;20819;-71
2023/09/07 08:33:12;;;;;;;8.50;6.13;;;;;;;21.76;60.86;101878.34;4991565;28;20215;-72
2023/09/07 08:35:43;;;;;;;12.43;6.63;;;;;;;21.89;61.40;101878.88;4990100;28;20231;-72
2023/09/07 08:38:10;;;;;;;9.13;6.47;;;;;;;22.00;59.86;101877.03;4989910;28;20230;-72
2023/09/07 08:40:40;;;;;;;8.47;6.27;;;;;;;22.12;61.15;101879.44;4987786;28;21221;-72
2023/09/07 08:43:10;;;;;;;9.03;6.00;;;;;;;22.21;61.14;101872.63;4990308;28;20194;-72
2023/09/07 08:45:48;;;;;;;8.43;6.63;;;;;;;22.33;61.45;101874.22;4991777;28;20250;-72
2023/09/07 08:48:17;;;;;;;8.47;6.30;;;;;;;22.45;58.47;101879.38;4989018;28;20675;-72
2023/09/07 08:50:49;;;;;;;9.57;6.60;;;;;;;22.53;60.40;101872.88;4990360;28;21767;-71
2023/09/07 08:53:17;;;;;;;10.35;6.13;;;;;;;22.67;58.28;101870.28;4987755;28;20510;-72
2023/09/07 08:55:44;;;;;;;7.72;5.68;;;;;;;22.79;58.79;101872.63;4989997;28;20230;-72
2023/09/07 08:58:11;;;;;;;9.65;5.65;;;;;;;22.88;59.22;101867.69;4990040;28;20207;-71
2023/09/07 09:00:38;;;;;;;9.77;5.43;;;;;;;22.99;58.62;101869.31;4990505;28;20451;-72
2023/09/07 09:03:05;;;;;;;14.38;7.05;;;;;;;23.06;59.31;101872.00;4989998;28;20214;-72
2023/09/07 09:05:34;;;;;;;9.93;6.40;;;;;;;23.21;58.51;101880.94;4990142;28;20374;-71
2023/09/07 09:08:04;;;;;;;6.93;5.93;;;;;;;23.34;57.86;101874.84;4989735;28;20222;-71
2023/09/07 09:10:31;;;;;;;7.97;6.13;;;;;;;23.45;57.45;101880.28;4988850;28;20232;-72
2023/09/07 09:12:59;;;;;;;8.95;6.38;;;;;;;23.57;55.56;101879.91;4987945;28;20226;-72
2023/09/07 09:15:26;;;;;;;8.48;6.20;;;;;;;23.70;54.43;101873.78;4990658;28;20402;-72
2023/09/07 09:17:53;;;;;;;10.52;6.88;;;;;;;23.79;56.60;101884.22;4986867;28;20826;-72
2023/09/07 09:20:24;;;;;;;7.57;5.65;;;;;;;23.89;53.97;101880.78;4989931;28;20214;-72
2023/09/07 09:22:53;;;;;;;10.07;6.10;;;;;;;24.01;56.00;101874.22;4989360;28;20829;-72
2023/09/07 09:25:19;;;;;;;9.02;6.18;;;;;;;24.11;55.18;101871.56;4991347;28;20242;-71
2023/09/07 09:27:47;;;;;;;11.80;6.18;;;;;;;24.22;54.16;101871.53;4995074;28;20218;-71
2023/09/07 09:30:15;;;;;;;6.70;5.63;;;;;;;24.31;53.42;101875.41;4990509;28;20208;-72
2023/09/07 09:32:42;;;;;;;7.93;5.35;;;;;;;24.41;52.90;101879.25;4991307;28;20206;-72
2023/09/07 09:35:09;;;;;;;6.45;5.22;;;;;;;24.49;52.18;101873.44;4988905;28;20826;-72
2023/09/07 09:37:43;;;;;;;7.10;5.15;;;;;;;24.60;50.89;101866.13;4989576;28;20207;-72
2023/09/07 09:40:12;;;;;;;7.28;5.40;;;;;;;24.70;50.59;101867.28;4993973;28;20210;-71
2023/09/07 09:42:39;;;;;;;7.85;5.40;;;;;;;24.76;52.81;101868.41;4993265;28;20211;-71
2023/09/07 09:45:08;;;;;;;8.65;5.57;;;;;;;24.84;52.01;101869.91;4992000;28;20292;-71
2023/09/07 09:47:38;;;;;;;7.32;4.90;;;;;;;24.95;51.07;101862.53;4992191;28;20227;-71
2023/09/07 09:50:07;;;;;;;7.25;5.00;;;;;;;25.04;52.52;101860.19;4993912;28;20712;-71
2023/09/07 09:52:35;;;;;;;7.68;5.43;;;;;;;25.09;49.28;101859.78;4993176;28;20258;-71
2023/09/07 09:55:05;;;;;;;6.45;4.88;;;;;;;25.14;49.72;101848.56;4992294;28;20226;-72
2023/09/07 09:57:34;;;;;;;9.77;5.47;;;;;;;25.20;50.95;101841.59;4994229;28;21014;-72
2023/09/07 10:00:06;;;;;;;7.75;4.97;;;;;;;25.28;49.95;101840.44;4992515;28;20208;-71
2023/09/07 10:02:40;;;;;;;6.45;5.07;;;;;;;25.33;50.99;101843.47;4987599;28;20331;-72
2023/09/07 10:05:09;;;;;;;6.40;4.60;;;;;;;25.38;50.66;101845.00;4992399;28;20249;-71
2023/09/07 10:07:43;;;;;;;8.68;4.90;;;;;;;25.42;50.21;101845.75;4990491;28;21081;-72
2023/09/07 10:10:10;;;;;;;6.65;4.90;;;;;;;25.50;48.48;101841.84;4991217;28;20686;-72
2023/09/07 10:12:41;;;;;;;5.07;3.85;;;;;;;25.58;46.06;101840.66;4992885;28;20207;-71
2023/09/07 10:15:20;;;;;;;5.05;3.80;;;;;;;25.66;45.93;101842.13;4991388;28;20254;-72
2023/09/07 10:17:49;;;;;;;4.10;3.45;;;;;;;25.76;46.48;101846.69;4992248;28;20240;-71
2023/09/07 10:20:16;;;;;;;4.65;3.50;;;;;;;25.80;43.88;101833.91;4992711;28;21534;-72
2023/09/07 10:22:42;;;;;;;4.75;3.55;;;;;;;25.85;44.49;101842.34;4991734;28;20262;-72
2023/09/07 10:25:19;;;;;;;3.63;3.10;;;;;;;25.93;43.35;101837.69;4991371;28;21556;-71
2023/09/07 10:27:47;;;;;;;5.45;3.63;;;;;;;26.00;42.92;101832.97;4993585;28;20289;-72
2023/09/07 10:30:18;;;;;;;4.07;3.65;;;;;;;26.04;41.97;101841.84;4991034;28;21295;-72
2023/09/07 10:32:45;;;;;;;5.03;3.92;;;;;;;26.08;45.16;101831.75;4971054;28;20203;-72
2023/09/07 10:35:16;;;;;;;6.22;3.92;;;;;;;26.17;42.66;101836.72;4993509;28;20898;-72
2023/09/07 10:37:45;;;;;;;5.10;3.28;;;;;;;26.23;43.81;101825.06;4991761;28;20216;-72
2023/09/07 10:40:12;;;;;;;4.82;3.25;;;;;;;26.27;43.73;101828.47;4990617;28;20207;-72
2023/09/07 10:42:38;;;;;;;3.80;3.00;;;;;;;26.31;43.50;101834.63;4991825;28;21672;-71
2023/09/07 10:45:12;;;;;;;4.25;3.35;;;;;;;26.34;38.75;101825.72;4991668;28;22227;-71
2023/09/07 10:47:41;;;;;;;4.15;3.40;;;;;;;26.38;40.25;101818.31;4991322;28;20214;-72
2023/09/07 10:50:08;;;;;;;5.00;2.90;;;;;;;26.47;39.32;101815.88;4991556;28;20652;-72
2023/09/07 10:52:34;;;;;;;3.95;3.15;;;;;;;26.54;39.68;101823.19;4990766;28;20838;-72
2023/09/07 10:55:01;;;;;;;6.93;3.15;;;;;;;26.59;39.25;101812.72;4994006;28;20237;-71
2023/09/07 10:57:27;;;;;;;7.78;3.13;;;;;;;26.65;37.86;101813.03;4988743;28;20219;-72
2023/09/07 10:59:55;;;;;;;3.22;2.72;;;;;;;26.70;39.51;101809.88;4991622;28;21446;-71
2023/09/07 11:02:22;;;;;;;3.83;2.88;;;;;;;26.74;39.59;101816.03;4991094;28;20346;-71
2023/09/07 11:04:49;;;;;;;5.50;3.17;;;;;;;26.78;39.74;101814.78;4991002;28;20691;-72
2023/09/07 11:07:15;;;;;;;2.92;2.63;;;;;;;26.82;39.00;101806.59;4987941;28;20215;-71
2023/09/07 11:09:43;;;;;;;4.40;2.85;;;;;;;26.87;38.86;101809.66;4989533;28;20246;-72
2023/09/07 11:12:13;;;;;;;4.07;2.90;;;;;;;26.93;39.06;101815.41;4990783;28;20912;-72
2023/09/07 11:14:40;;;;;;;6.68;3.10;;;;;;;26.98;38.94;101810.28;4989369;28;20215;-72
2023/09/07 11:17:06;;;;;;;6.32;3.28;;;;;;;27.02;39.05;101810.22;4990531;28;20210;-71